Aérodrome :
LOGIN :

S'inscrire | Disclaimer

   EN    FR    IT 

 










Légende :    VFR   VFR Marginal   IFR   IFR Intensif   IFR Très Intensif
Visi : 
Plafond : 
>= 8 km
>= 3000ft
5 à 8 km
1000 à 3000 ft
1500m à 5 km
500 à 1000 ft
800 à 1500m
200 à 500 ft
< 800m
< 200 ft
Symboles :   Orages  Brouillard  Fortes neiges  Fortes précipitations  Vent > 20 kt
SIGMETs :   Divers  Orages  Givrage  Turbulence  Onde Orograph.  Cendres Volcan.






- Altitude de l'aérodrome : 59 ft
- Code IATA : TSF


LIPH - Treviso

DERNIER METAR :
  • 301650Z 15004KT 120V230 CAVOK 30/21 Q1008

METARs EXPIRÉS :
  • 301620Z 15005KT 130V240 CAVOK 30/21 Q1008
  • 301550Z 16007KT 130V200 CAVOK 30/20 Q1009
  • 301520Z 16006KT 9999 FEW050 29/21 Q1009
  • 301450Z 20004KT 150V240 9999 FEW040 31/22 Q1009
  • 301420Z 18005KT 140V210 9999 SCT040 31/22 Q1009

TAF TAF LIPH
Valide du 30 à 12h jusqu'au 31 à 12h UTC


301100Z 3012/3112 VRB06KT 9999 FEW040
PROB30
TEMPO 3018/3022 TSRA



MET'MAP, la Météo Aéronautique d'un coup d'oeil ! - Copyright ORBIFLY Décembre 2007 - Disclaimer

ORBIFLY MET'MAP TEAM :

Programmation & Développement : Alexandra Zaïnal
Sur une idée originale de : Baudouin d'Aumeries
Assistance à la programmation : Marc-Olivier Méhu
Soutien technique & logistique : Manuel Goepfert

Contact : metmap@orbifly.com




SOURCES & CREDITS :

   NOAA